Williams, Minnesota
Current Conditions -  °F | °C
As of 7:28 PM on Sunday 23 Nov 2014 (Local Time) from KBDE Reporting Station
Haze Haze  
Wind Chill: 23°   Ceiling: 300
Heat Index: 30°   Visibility: 1.7mi
Dew Point: 29°   Wind: 7mph
Humidity: 96%   Direction: 300°WNW
Pressure: 29.41"   Gusts: NA
Location:  48.77°N, 94.96°W
Report Text: KBDE 240128Z AUTO 30006KT 1 3/4SM BR OVC003 M01/M02 A2941 RMK AO2 T10111017 TSNO
Loading
Personal Weather Stations






























Interactive Weather Map New forecast layout! Learn more

10-Day Weather Forecast

Advertisements
Track Severe Weather on mobile